Time;durP1;ratioP1;P1;durP2;ratioP2;P2;SDS_P1;SDS_P2;PMS_P1;PMS_P2;Temp;Humidity;BMP_temperature;BMP_pressure;BME280_temperature;BME280_humidity;BME280_pressure;Samples;Min_cycle;Max_cycle;Signal;HPM_P1;HPM_P2
2022/10/09 00:01:09;;;;;;;7.35;5.10;;;;;;;;;;4964226;28;20058;-70
2022/10/09 00:03:36;;;;;;;11.32;5.10;;;;;;;;;;4962971;28;20083;-69
2022/10/09 00:06:03;;;;;;;11.27;5.50;;;;;;;;;;4963256;28;20057;-70
2022/10/09 00:08:28;;;;;;;8.27;5.35;;;;;;;;;;4963828;28;20046;-69
2022/10/09 00:10:54;;;;;;;11.55;5.00;;;;;;;;;;4963485;28;20045;-69
2022/10/09 00:13:20;;;;;;;12.65;5.22;;;;;;;;;;4962447;28;20058;-69
2022/10/09 00:15:46;;;;;;;12.73;5.45;;;;;;;;;;4945871;28;20046;-69
2022/10/09 00:18:14;;;;;;;11.68;4.93;;;;;;;;;;4946104;28;20207;-70
2022/10/09 00:20:42;;;;;;;11.05;5.63;;;;;;;;;;4963578;28;20074;-70
2022/10/09 00:23:08;;;;;;;10.18;5.10;;;;;;;;;;4963355;28;20377;-70
2022/10/09 00:25:37;;;;;;;8.57;5.40;;;;;;;;;;4962350;28;20528;-70
2022/10/09 00:28:03;;;;;;;13.43;5.30;;;;;;;;;;4963035;28;20404;-70
2022/10/09 00:30:29;;;;;;;9.10;5.28;;;;;;;;;;4963941;28;20049;-69
2022/10/09 00:32:54;;;;;;;12.57;4.85;;;;;;;;;;4962974;28;20043;-69
2022/10/09 00:35:21;;;;;;;7.40;4.32;;;;;;;;;;4962060;28;20117;-69
2022/10/09 00:37:47;;;;;;;11.40;4.28;;;;;;;;;;4962533;28;20057;-69
2022/10/09 00:40:13;;;;;;;11.80;4.50;;;;;;;;;;4963057;28;20047;-69
2022/10/09 00:42:39;;;;;;;7.82;4.55;;;;;;;;;;4962930;28;20050;-69
2022/10/09 00:45:05;;;;;;;7.82;4.47;;;;;;;;;;4963165;28;20047;-69
2022/10/09 00:47:42;;;;;;;16.40;5.13;;;;;;;;;;4960862;28;20054;-70
2022/10/09 00:50:13;;;;;;;6.80;4.07;;;;;;;;;;4963048;28;20122;-67
2022/10/09 00:52:39;;;;;;;11.07;4.40;;;;;;;;;;4963014;28;20047;-69
2022/10/09 00:55:06;;;;;;;8.40;3.80;;;;;;;;;;4962641;28;20747;-69
2022/10/09 00:57:32;;;;;;;7.82;4.47;;;;;;;;;;4961185;28;20065;-69
2022/10/09 01:00:01;;;;;;;11.63;3.95;;;;;;;;;;4962959;28;20047;-69
2022/10/09 01:02:27;;;;;;;7.28;3.80;;;;;;;;;;4962892;28;20161;-68
2022/10/09 01:04:52;;;;;;;11.43;4.57;;;;;;;;;;4962967;28;20053;-69
2022/10/09 01:07:25;;;;;;;7.72;3.95;;;;;;;;;;4961521;28;20093;-69
2022/10/09 01:10:01;;;;;;;6.78;3.72;;;;;;;;;;4962294;28;20061;-69
2022/10/09 01:12:38;;;;;;;7.30;4.07;;;;;;;;;;4962510;28;20408;-69
2022/10/09 01:15:23;;;;;;;11.20;3.70;;;;;;;;;;4962355;28;20046;-69
2022/10/09 01:17:55;;;;;;;8.00;3.83;;;;;;;;;;4961833;28;20408;-68
2022/10/09 01:20:39;;;;;;;11.00;4.38;;;;;;;;;;4944533;28;20051;-68
2022/10/09 01:23:21;;;;;;;11.90;4.20;;;;;;;;;;4962266;28;20046;-68
2022/10/09 01:25:50;;;;;;;;;;;;;;;;;;4962233;28;20051;-68
2022/10/09 01:28:18;;;;;;;4.97;3.20;;;;;;;;;;4960223;28;19917;-68
2022/10/09 01:30:44;;;;;;;9.15;3.55;;;;;;;;;;4960939;28;20495;-68
2022/10/09 01:33:10;;;;;;;10.25;3.42;;;;;;;;;;4960401;28;20097;-69
2022/10/09 01:35:36;;;;;;;8.82;4.20;;;;;;;;;;4960109;28;20062;-68
2022/10/09 01:38:03;;;;;;;11.00;4.30;;;;;;;;;;4958092;28;20046;-68
2022/10/09 01:40:29;;;;;;;9.35;4.68;;;;;;;;;;4959241;28;20054;-68
2022/10/09 01:42:55;;;;;;;8.73;4.35;;;;;;;;;;4961852;28;20925;-69
2022/10/09 01:45:20;;;;;;;9.48;4.40;;;;;;;;;;4961513;28;20133;-69
2022/10/09 01:47:46;;;;;;;14.32;4.40;;;;;;;;;;4961565;28;20068;-68
2022/10/09 01:50:11;;;;;;;8.35;4.07;;;;;;;;;;4961330;28;20039;-69
2022/10/09 01:52:54;;;;;;;6.47;3.78;;;;;;;;;;4961581;28;20051;-68
2022/10/09 01:55:35;;;;;;;7.88;3.85;;;;;;;;;;4961479;28;20050;-69
2022/10/09 01:58:04;;;;;;;13.15;4.10;;;;;;;;;;4961475;28;20061;-69
2022/10/09 02:00:34;;;;;;;8.23;3.83;;;;;;;;;;4961768;28;20075;-68
2022/10/09 02:03:03;;;;;;;7.28;3.97;;;;;;;;;;4961729;28;20050;-69
2022/10/09 02:05:30;;;;;;;7.72;4.32;;;;;;;;;;4961356;28;20058;-68
2022/10/09 02:07:57;;;;;;;11.88;3.78;;;;;;;;;;4961207;28;20096;-68
2022/10/09 02:10:24;;;;;;;11.50;4.60;;;;;;;;;;4961995;28;20097;-69
2022/10/09 02:12:56;;;;;;;8.48;3.75;;;;;;;;;;4961035;28;20050;-69
2022/10/09 02:15:23;;;;;;;;;;;;;;;;;;4961832;28;20047;-69
2022/10/09 02:17:53;;;;;;;7.35;4.20;;;;;;;;;;4961184;28;19937;-68
2022/10/09 02:20:27;;;;;;;13.60;4.53;;;;;;;;;;4961712;28;20543;-68
2022/10/09 02:22:54;;;;;;;13.65;4.93;;;;;;;;;;4961147;28;20130;-68
2022/10/09 02:25:20;;;;;;;11.88;4.72;;;;;;;;;;4961083;28;20055;-70
2022/10/09 02:27:46;;;;;;;12.48;4.82;;;;;;;;;;4961133;28;20046;-69
2022/10/09 02:30:13;;;;;;;9.93;4.55;;;;;;;;;;4961913;28;20133;-69
2022/10/09 02:32:39;;;;;;;13.20;4.68;;;;;;;;;;4961993;28;20051;-69
2022/10/09 02:35:05;;;;;;;6.72;4.50;;;;;;;;;;4963304;28;20053;-69
2022/10/09 02:37:31;;;;;;;9.80;4.97;;;;;;;;;;4961473;28;20137;-70
2022/10/09 02:39:56;;;;;;;9.55;5.20;;;;;;;;;;4961487;28;20537;-70
2022/10/09 02:42:22;;;;;;;10.02;4.55;;;;;;;;;;4961654;28;20065;-69
2022/10/09 02:44:47;;;;;;;9.38;4.38;;;;;;;;;;4960475;28;20396;-69
2022/10/09 02:47:12;;;;;;;10.10;4.78;;;;;;;;;;4961163;28;20047;-69
2022/10/09 02:49:38;;;;;;;7.15;4.35;;;;;;;;;;4960495;28;20055;-69
2022/10/09 02:52:04;;;;;;;10.95;4.40;;;;;;;;;;4961531;28;20058;-69
2022/10/09 02:54:29;;;;;;;10.55;5.20;;;;;;;;;;4961303;28;20133;-69
2022/10/09 02:56:55;;;;;;;5.90;4.22;;;;;;;;;;4960171;28;20038;-69
2022/10/09 02:59:20;;;;;;;8.40;4.18;;;;;;;;;;4960478;28;20182;-69
2022/10/09 03:01:46;;;;;;;8.63;4.10;;;;;;;;;;4943216;28;20492;-69
2022/10/09 03:04:11;;;;;;;6.93;4.03;;;;;;;;;;4961244;28;20109;-69
2022/10/09 03:06:37;;;;;;;10.02;4.53;;;;;;;;;;4960411;28;20058;-69
2022/10/09 03:09:02;;;;;;;10.68;4.70;;;;;;;;;;4961232;28;20074;-69
2022/10/09 03:11:28;;;;;;;9.43;5.15;;;;;;;;;;4962829;28;20082;-69
2022/10/09 03:13:53;;;;;;;9.65;4.50;;;;;;;;;;4947398;28;20046;-68
2022/10/09 03:16:21;;;;;;;9.52;4.50;;;;;;;;;;4964482;28;20070;-69
2022/10/09 03:18:48;;;;;;;5.55;4.20;;;;;;;;;;4963877;28;20097;-70
2022/10/09 03:21:16;;;;;;;9.35;5.32;;;;;;;;;;4964657;28;20101;-69
2022/10/09 03:23:42;;;;;;;15.52;5.00;;;;;;;;;;4963821;28;20109;-69
2022/10/09 03:26:10;;;;;;;8.65;4.53;;;;;;;;;;4964526;28;20046;-69
2022/10/09 03:28:40;;;;;;;8.43;4.22;;;;;;;;;;4963476;28;20054;-68
2022/10/09 03:31:06;;;;;;;7.20;4.20;;;;;;;;;;4964258;28;20415;-68
2022/10/09 03:33:32;;;;;;;8.45;4.22;;;;;;;;;;4946506;28;20142;-69
2022/10/09 03:35:58;;;;;;;12.13;4.45;;;;;;;;;;4964465;28;20050;-68
2022/10/09 03:38:23;;;;;;;10.85;4.25;;;;;;;;;;4961804;28;20062;-68
2022/10/09 03:40:49;;;;;;;7.88;4.07;;;;;;;;;;4962511;28;20061;-68
2022/10/09 03:43:14;;;;;;;7.90;4.32;;;;;;;;;;4963990;28;20061;-69
2022/10/09 03:45:41;;;;;;;13.15;4.80;;;;;;;;;;4963747;28;20054;-68
2022/10/09 03:48:09;;;;;;;9.68;4.07;;;;;;;;;;4963872;28;20143;-69
2022/10/09 03:50:35;;;;;;;7.35;4.47;;;;;;;;;;4960974;28;20100;-68
2022/10/09 03:53:02;;;;;;;15.82;6.68;;;;;;;;;;4963775;28;20530;-69
2022/10/09 03:55:27;;;;;;;12.07;5.78;;;;;;;;;;4963453;28;20086;-69
2022/10/09 03:57:53;;;;;;;8.05;5.22;;;;;;;;;;4963665;28;20249;-69
2022/10/09 04:00:18;;;;;;;9.50;4.25;;;;;;;;;;4963828;28;20051;-69
2022/10/09 04:02:44;;;;;;;9.55;4.40;;;;;;;;;;4963184;28;20074;-69
2022/10/09 04:05:09;;;;;;;9.48;4.30;;;;;;;;;;4963839;28;20150;-69
2022/10/09 04:07:34;;;;;;;11.68;4.65;;;;;;;;;;4962991;28;20141;-69
2022/10/09 04:10:00;;;;;;;8.65;4.93;;;;;;;;;;4963730;28;20043;-69
2022/10/09 04:12:25;;;;;;;10.52;4.93;;;;;;;;;;4962929;28;21009;-69
2022/10/09 04:14:51;;;;;;;11.73;5.03;;;;;;;;;;4963799;28;20050;-68
2022/10/09 04:17:16;;;;;;;13.13;5.95;;;;;;;;;;4963131;28;21081;-69
2022/10/09 04:19:42;;;;;;;10.57;6.00;;;;;;;;;;4963086;28;20042;-69
2022/10/09 04:22:07;;;;;;;12.57;5.90;;;;;;;;;;4962472;28;20053;-71
2022/10/09 04:24:32;;;;;;;8.18;4.20;;;;;;;;;;4962677;28;20078;-70
2022/10/09 04:26:58;;;;;;;8.52;4.15;;;;;;;;;;4962730;28;20050;-68
2022/10/09 04:29:23;;;;;;;8.98;4.57;;;;;;;;;;4963045;28;20054;-69
2022/10/09 04:31:49;;;;;;;9.70;5.15;;;;;;;;;;4963205;28;20055;-69
2022/10/09 04:34:14;;;;;;;9.52;4.68;;;;;;;;;;4962890;28;20145;-69
2022/10/09 04:36:40;;;;;;;7.60;5.13;;;;;;;;;;4962620;28;20130;-69
2022/10/09 04:39:05;;;;;;;7.93;4.35;;;;;;;;;;4963262;28;20423;-67
2022/10/09 04:41:31;;;;;;;7.38;4.72;;;;;;;;;;4962363;28;20058;-68
2022/10/09 04:43:57;;;;;;;10.82;5.05;;;;;;;;;;4963185;28;20126;-69
2022/10/09 04:46:22;;;;;;;10.55;5.10;;;;;;;;;;4961929;28;20420;-69
2022/10/09 04:48:48;;;;;;;10.43;5.20;;;;;;;;;;4962696;28;20082;-69
2022/10/09 04:51:15;;;;;;;15.80;5.40;;;;;;;;;;4962528;28;20407;-69
2022/10/09 04:53:41;;;;;;;14.48;5.72;;;;;;;;;;4961878;28;20460;-70
2022/10/09 04:56:10;;;;;;;12.60;5.55;;;;;;;;;;4962356;28;20042;-70
2022/10/09 04:58:36;;;;;;;14.13;5.93;;;;;;;;;;4961555;28;20132;-69
2022/10/09 05:01:14;;;;;;;10.00;6.22;;;;;;;;;;4963115;28;20541;-69
2022/10/09 05:03:39;;;;;;;12.32;5.63;;;;;;;;;;4945273;28;22229;-69
2022/10/09 05:06:07;;;;;;;13.55;5.68;;;;;;;;;;4962359;28;20053;-70
2022/10/09 05:08:33;;;;;;;14.13;5.55;;;;;;;;;;4961382;28;20488;-69
2022/10/09 05:11:00;;;;;;;10.13;6.13;;;;;;;;;;4960784;28;20133;-69
2022/10/09 05:13:35;;;;;;;14.95;6.03;;;;;;;;;;4958759;28;20055;-70
2022/10/09 05:16:06;;;;;;;12.68;5.93;;;;;;;;;;4961936;28;20396;-69
2022/10/09 05:18:32;;;;;;;14.27;6.47;;;;;;;;;;4960959;28;20058;-69
2022/10/09 05:20:58;;;;;;;14.20;6.75;;;;;;;;;;4961485;28;20046;-70
2022/10/09 05:23:23;;;;;;;12.10;6.20;;;;;;;;;;4944264;28;20411;-69
2022/10/09 05:25:58;;;;;;;18.05;6.75;;;;;;;;;;4962524;28;20038;-69
2022/10/09 05:28:23;;;;;;;10.13;6.07;;;;;;;;;;4961900;28;20054;-69
2022/10/09 05:30:49;;;;;;;13.70;6.78;;;;;;;;;;4961200;28;20098;-70
2022/10/09 05:33:15;;;;;;;8.30;6.60;;;;;;;;;;4962016;28;20058;-70
2022/10/09 05:35:49;;;;;;;16.10;6.63;;;;;;;;;;4960055;28;20125;-69
2022/10/09 05:38:14;;;;;;;15.35;6.80;;;;;;;;;;4943560;28;20043;-69
2022/10/09 05:40:58;;;;;;;12.70;5.75;;;;;;;;;;4960846;28;20054;-70
2022/10/09 05:43:26;;;;;;;15.13;6.90;;;;;;;;;;4958592;28;20038;-70
2022/10/09 05:45:52;;;;;;;12.27;6.30;;;;;;;;;;4954767;28;20050;-69
2022/10/09 05:48:17;;;;;;;14.88;6.97;;;;;;;;;;4960956;28;20053;-69
2022/10/09 05:50:43;;;;;;;16.48;6.30;;;;;;;;;;4959459;28;20056;-69
2022/10/09 05:53:08;;;;;;;11.88;5.97;;;;;;;;;;4958539;28;20038;-69
2022/10/09 05:55:34;;;;;;;11.65;5.80;;;;;;;;;;4958827;28;20575;-69
2022/10/09 05:57:59;;;;;;;12.48;5.38;;;;;;;;;;4959412;28;20043;-69
2022/10/09 06:00:25;;;;;;;8.85;5.05;;;;;;;;;;4959851;28;20050;-70
2022/10/09 06:02:50;;;;;;;10.98;6.28;;;;;;;;;;4959391;28;20057;-70
2022/10/09 06:05:16;;;;;;;13.15;5.82;;;;;;;;;;4960383;28;20043;-69
2022/10/09 06:07:41;;;;;;;13.85;5.72;;;;;;;;;;4959096;28;20065;-69
2022/10/09 06:10:07;;;;;;;13.57;5.57;;;;;;;;;;4959744;28;20407;-69
2022/10/09 06:12:32;;;;;;;10.80;6.43;;;;;;;;;;4961370;28;20399;-70
2022/10/09 06:14:58;;;;;;;10.98;6.63;;;;;;;;;;4959074;28;20500;-69
2022/10/09 06:17:23;;;;;;;13.40;6.10;;;;;;;;;;4958914;28;20138;-69
2022/10/09 06:19:49;;;;;;;11.50;5.28;;;;;;;;;;4960483;28;20483;-69
2022/10/09 06:22:15;;;;;;;17.13;6.30;;;;;;;;;;4959300;28;20101;-69
2022/10/09 06:24:40;;;;;;;13.20;5.65;;;;;;;;;;4958553;28;20050;-68
2022/10/09 06:27:07;;;;;;;16.05;6.28;;;;;;;;;;4941079;28;20456;-70
2022/10/09 06:29:32;;;;;;;9.55;6.10;;;;;;;;;;4958466;28;20503;-70
2022/10/09 06:31:58;;;;;;;14.52;6.60;;;;;;;;;;4933200;28;20177;-69
2022/10/09 06:34:23;;;;;;;14.35;6.68;;;;;;;;;;4942530;28;20046;-71
2022/10/09 06:36:49;;;;;;;8.25;4.85;;;;;;;;;;4958061;28;20523;-69
2022/10/09 06:39:15;;;;;;;10.77;6.45;;;;;;;;;;4958944;28;20113;-70
2022/10/09 06:41:40;;;;;;;11.23;6.45;;;;;;;;;;4959410;28;20101;-69
2022/10/09 06:44:43;;;;;;;12.13;6.88;;;;;;;;;;4932605;28;20043;-68
2022/10/09 06:47:08;;;;;;;17.55;6.75;;;;;;;;;;4960639;28;20582;-69
2022/10/09 06:49:34;;;;;;;13.25;6.32;;;;;;;;;;4962806;28;20058;-69
2022/10/09 06:51:59;;;;;;;11.10;5.82;;;;;;;;;;4962978;28;20073;-70
2022/10/09 06:54:25;;;;;;;13.15;6.93;;;;;;;;;;4963025;28;20129;-69
2022/10/09 06:56:53;;;;;;;13.40;8.18;;;;;;;;;;4962045;28;20101;-70
2022/10/09 06:59:18;;;;;;;10.25;6.25;;;;;;;;;;4963344;28;20523;-69
2022/10/09 07:01:44;;;;;;;11.77;6.93;;;;;;;;;;4965038;28;20078;-69
2022/10/09 07:04:13;;;;;;;15.07;7.60;;;;;;;;;;4964407;28;20043;-70
2022/10/09 07:06:41;;;;;;;11.50;6.22;;;;;;;;;;4963633;28;20047;-68
2022/10/09 07:09:09;;;;;;;14.50;8.20;;;;;;;;;;4964199;28;20491;-67
2022/10/09 07:11:37;;;;;;;13.35;8.98;;;;;;;;;;4964941;28;20054;-68
2022/10/09 07:14:05;;;;;;;15.23;8.38;;;;;;;;;;4964792;28;20488;-69
2022/10/09 07:16:33;;;;;;;18.13;9.23;;;;;;;;;;4964454;28;20118;-68
2022/10/09 07:19:02;;;;;;;15.98;10.13;;;;;;;;;;4964382;28;20066;-68
2022/10/09 07:21:27;;;;;;;18.38;9.52;;;;;;;;;;4947053;28;20492;-69
2022/10/09 07:23:53;;;;;;;17.80;10.50;;;;;;;;;;4964289;28;20097;-68
2022/10/09 07:26:21;;;;;;;18.85;9.80;;;;;;;;;;4964644;28;20050;-69
2022/10/09 07:28:47;;;;;;;15.73;9.55;;;;;;;;;;4963636;28;20129;-67
2022/10/09 07:31:14;;;;;;;15.27;9.77;;;;;;;;;;4963905;28;20488;-68
2022/10/09 07:33:40;;;;;;;17.05;8.35;;;;;;;;;;4963982;28;20057;-68
2022/10/09 07:36:07;;;;;;;16.55;9.05;;;;;;;;;;4964874;28;20518;-67
2022/10/09 07:38:33;;;;;;;14.23;8.13;;;;;;;;;;4963208;28;20050;-68
2022/10/09 07:41:09;;;;;;;12.52;8.35;;;;;;;;;;4964606;28;20048;-69
2022/10/09 07:43:38;;;;;;;15.07;8.55;;;;;;;;;;4947088;28;20047;-67
2022/10/09 07:46:07;;;;;;;14.27;8.75;;;;;;;;;;4964277;28;20050;-67
2022/10/09 07:48:34;;;;;;;15.38;8.65;;;;;;;;;;4963434;28;20046;-68
2022/10/09 07:51:14;;;;;;;16.30;8.48;;;;;;;;;;4963908;28;20050;-68
2022/10/09 07:53:39;;;;;;;12.05;7.55;;;;;;;;;;4963408;28;20047;-68
2022/10/09 07:56:05;;;;;;;13.00;8.13;;;;;;;;;;4963994;28;20385;-70
2022/10/09 07:58:31;;;;;;;14.40;8.45;;;;;;;;;;4963765;28;20047;-68
2022/10/09 08:01:03;;;;;;;13.88;8.10;;;;;;;;;;4963510;28;20043;-70
2022/10/09 08:03:28;;;;;;;14.00;9.30;;;;;;;;;;4962876;28;20131;-69
2022/10/09 08:05:54;;;;;;;12.00;8.05;;;;;;;;;;4963544;28;20034;-70
2022/10/09 08:08:20;;;;;;;12.05;8.63;;;;;;;;;;4963112;28;20039;-71
2022/10/09 08:10:45;;;;;;;12.13;7.88;;;;;;;;;;4962921;28;20108;-71
2022/10/09 08:13:11;;;;;;;11.05;7.65;;;;;;;;;;4963770;28;20051;-71
2022/10/09 08:15:41;;;;;;;12.02;7.85;;;;;;;;;;4962443;28;20062;-70
2022/10/09 08:18:07;;;;;;;9.18;7.00;;;;;;;;;;4962774;28;20062;-69
2022/10/09 08:20:33;;;;;;;13.00;7.00;;;;;;;;;;4962835;28;20066;-71
2022/10/09 08:22:58;;;;;;;15.35;7.90;;;;;;;;;;4963648;28;20050;-70
2022/10/09 08:25:24;;;;;;;16.80;8.15;;;;;;;;;;4945753;28;20058;-69
2022/10/09 08:27:52;;;;;;;11.38;6.68;;;;;;;;;;4962318;28;20045;-69
2022/10/09 08:30:18;;;;;;;11.52;7.97;;;;;;;;;;4963235;28;20043;-70
2022/10/09 08:32:44;;;;;;;12.32;8.32;;;;;;;;;;4962662;28;20062;-69
2022/10/09 08:35:09;;;;;;;10.63;7.82;;;;;;;;;;4958253;28;20080;-70
2022/10/09 08:37:35;;;;;;;9.93;7.25;;;;;;;;;;4961284;28;20046;-68
2022/10/09 08:40:01;;;;;;;13.13;7.75;;;;;;;;;;4961326;28;20054;-70
2022/10/09 08:42:38;;;;;;;12.27;6.70;;;;;;;;;;4961717;28;20476;-69
2022/10/09 08:45:04;;;;;;;14.95;7.90;;;;;;;;;;4928175;28;20046;-70
2022/10/09 08:48:01;;;;;;;11.80;7.55;;;;;;;;;;4960106;28;20109;-68
2022/10/09 08:50:31;;;;;;;10.60;6.57;;;;;;;;;;4959832;28;20054;-69
2022/10/09 08:53:12;;;;;;;11.50;7.60;;;;;;;;;;4944695;28;20047;-71
2022/10/09 08:55:47;;;;;;;10.85;6.00;;;;;;;;;;4944373;28;20078;-70
2022/10/09 08:58:16;;;;;;;14.38;6.72;;;;;;;;;;4943542;28;20133;-70
2022/10/09 09:00:50;;;;;;;10.73;6.75;;;;;;;;;;4961066;28;20082;-69
2022/10/09 09:03:37;;;;;;;10.00;6.20;;;;;;;;;;4960526;28;20047;-69
2022/10/09 09:06:42;;;;;;;10.00;6.32;;;;;;;;;;4960441;28;20113;-69
2022/10/09 09:09:15;;;;;;;10.68;6.00;;;;;;;;;;4941464;28;20049;-70
2022/10/09 09:12:13;;;;;;;10.70;6.28;;;;;;;;;;4960937;28;20097;-71
2022/10/09 09:15:00;;;;;;;7.72;5.95;;;;;;;;;;4949294;28;20939;-69
2022/10/09 09:17:53;;;;;;;7.57;5.45;;;;;;;;;;4960888;28;20138;-70
2022/10/09 09:20:28;;;;;;;10.30;6.35;;;;;;;;;;4959882;28;20079;-71
2022/10/09 09:22:55;;;;;;;14.32;9.38;;;;;;;;;;4960271;28;20058;-70
2022/10/09 09:25:27;;;;;;;10.18;6.10;;;;;;;;;;4961295;28;20047;-71
2022/10/09 09:27:57;;;;;;;7.60;5.13;;;;;;;;;;4943360;28;20047;-70
2022/10/09 09:30:36;;;;;;;6.50;4.35;;;;;;;;;;4961100;28;20042;-70
2022/10/09 09:33:17;;;;;;;9.00;5.47;;;;;;;;;;4958080;28;20129;-70
2022/10/09 09:35:57;;;;;;;7.22;4.88;;;;;;;;;;4960081;28;20698;-69
2022/10/09 09:38:22;;;;;;;9.90;4.80;;;;;;;;;;4956972;28;20061;-70
2022/10/09 09:40:49;;;;;;;5.55;4.38;;;;;;;;;;4959560;28;20046;-69
2022/10/09 09:43:21;;;;;;;6.40;4.25;;;;;;;;;;4959682;28;20538;-71
2022/10/09 09:45:50;;;;;;;13.85;5.20;;;;;;;;;;4959925;28;20054;-72
2022/10/09 09:48:39;;;;;;;14.20;5.28;;;;;;;;;;4961547;28;20579;-71
2022/10/09 09:51:11;;;;;;;6.63;5.05;;;;;;;;;;4960505;28;20057;-71
2022/10/09 09:53:41;;;;;;;7.13;4.80;;;;;;;;;;4960984;28;20054;-71
2022/10/09 09:56:08;;;;;;;7.57;4.07;;;;;;;;;;4961539;28;20051;-71
2022/10/09 09:58:49;;;;;;;4.72;4.00;;;;;;;;;;4961302;28;20385;-72
2022/10/09 10:01:24;;;;;;;5.82;4.53;;;;;;;;;;4961750;28;20050;-70
2022/10/09 10:03:55;;;;;;;9.43;3.75;;;;;;;;;;4959855;28;20134;-69
2022/10/09 10:06:43;;;;;;;6.28;4.53;;;;;;;;;;4959953;28;20047;-70
2022/10/09 10:09:17;;;;;;;5.32;3.95;;;;;;;;;;4922646;28;20046;-69
2022/10/09 10:12:13;;;;;;;3.83;3.25;;;;;;;;;;4944481;28;20051;-69
2022/10/09 10:14:49;;;;;;;6.47;3.65;;;;;;;;;;4959689;28;20060;-70
2022/10/09 10:17:25;;;;;;;5.93;3.50;;;;;;;;;;4943598;28;20522;-69
2022/10/09 10:19:50;;;;;;;2.95;2.65;;;;;;;;;;4961516;28;20062;-69
2022/10/09 10:22:24;;;;;;;9.13;3.53;;;;;;;;;;4959869;28;20039;-68
2022/10/09 10:24:53;;;;;;;8.02;3.85;;;;;;;;;;4962338;28;20050;-69
2022/10/09 10:27:29;;;;;;;6.43;3.65;;;;;;;;;;4962755;28;21161;-69
2022/10/09 10:30:01;;;;;;;4.20;3.63;;;;;;;;;;4960905;28;20047;-69
2022/10/09 10:32:34;;;;;;;9.38;4.13;;;;;;;;;;4961275;28;20134;-70
2022/10/09 10:35:01;;;;;;;5.78;3.25;;;;;;;;;;4942909;28;20059;-70
2022/10/09 10:37:41;;;;;;;3.28;2.75;;;;;;;;;;4960061;28;20058;-70
2022/10/09 10:40:13;;;;;;;7.50;3.50;;;;;;;;;;4927896;28;21048;-70
2022/10/09 10:42:44;;;;;;;;;;;;;;;;;;4962777;28;20078;-70
2022/10/09 10:45:23;;;;;;;4.50;3.25;;;;;;;;;;4962281;28;19922;-70
2022/10/09 10:47:53;;;;;;;5.28;2.45;;;;;;;;;;4963314;28;20052;-69
2022/10/09 10:50:20;;;;;;;4.50;2.97;;;;;;;;;;4961990;28;20180;-70
2022/10/09 10:53:02;;;;;;;7.20;3.10;;;;;;;;;;4963093;28;20038;-71
2022/10/09 10:55:27;;;;;;;;;;;;;;;;;;4963185;28;20054;-70
2022/10/09 10:58:18;;;;;;;6.57;3.08;;;;;;;;;;4963306;28;19933;-69
2022/10/09 11:01:10;;;;;;;11.02;3.20;;;;;;;;;;4960766;28;20038;-69
2022/10/09 11:03:50;;;;;;;10.80;3.15;;;;;;;;;;4949114;28;20054;-69
2022/10/09 11:06:30;;;;;;;5.38;2.65;;;;;;;;;;4962190;28;20092;-69
2022/10/09 11:09:21;;;;;;;6.05;3.10;;;;;;;;;;4962429;28;20069;-68
2022/10/09 11:11:56;;;;;;;3.92;2.92;;;;;;;;;;4962462;28;20061;-70
2022/10/09 11:14:41;;;;;;;5.75;3.13;;;;;;;;;;4963345;28;20050;-69
2022/10/09 11:17:49;;;;;;;6.13;3.75;;;;;;;;;;4929525;28;20053;-69
2022/10/09 11:20:27;;;;;;;5.88;3.20;;;;;;;;;;4905213;29;20052;-68
2022/10/09 11:23:04;;;;;;;3.45;2.65;;;;;;;;;;4963423;28;20434;-68
2022/10/09 11:25:35;;;;;;;4.50;2.53;;;;;;;;;;4948696;28;20798;-70
2022/10/09 11:28:08;;;;;;;3.92;2.40;;;;;;;;;;4963378;28;20070;-69
2022/10/09 11:30:41;;;;;;;10.15;2.85;;;;;;;;;;4963328;28;20150;-68
2022/10/09 11:33:13;;;;;;;3.70;2.80;;;;;;;;;;4944040;28;20130;-69
2022/10/09 11:35:47;;;;;;;5.32;3.13;;;;;;;;;;4961529;28;20133;-69
2022/10/09 11:38:26;;;;;;;5.78;2.70;;;;;;;;;;4962079;28;20507;-68
2022/10/09 11:40:52;;;;;;;4.45;2.53;;;;;;;;;;4962204;28;20504;-69
2022/10/09 11:43:27;;;;;;;2.85;2.28;;;;;;;;;;4963542;28;20058;-69
2022/10/09 11:46:31;;;;;;;9.95;3.10;;;;;;;;;;4968807;28;20074;-69
2022/10/09 11:49:08;;;;;;;6.32;2.95;;;;;;;;;;4950616;28;20055;-69
2022/10/09 11:51:51;;;;;;;5.80;3.40;;;;;;;;;;4944473;28;20047;-69
2022/10/09 11:54:20;;;;;;;8.43;3.05;;;;;;;;;;4961707;28;20455;-69
2022/10/09 11:56:51;;;;;;;5.85;3.03;;;;;;;;;;4961937;28;20125;-69
2022/10/09 11:59:29;;;;;;;10.57;3.22;;;;;;;;;;4962299;28;20061;-69
2022/10/09 12:01:59;;;;;;;4.13;2.65;;;;;;;;;;4962928;28;21155;-70
2022/10/09 12:04:32;;;;;;;5.68;2.83;;;;;;;;;;4960962;28;20511;-69
2022/10/09 12:07:05;;;;;;;7.75;3.13;;;;;;;;;;4959717;28;20047;-69
2022/10/09 12:09:39;;;;;;;7.72;3.00;;;;;;;;;;4960132;28;20066;-69
2022/10/09 12:12:18;;;;;;;6.47;3.10;;;;;;;;;;4961273;28;20141;-69
2022/10/09 12:14:47;;;;;;;4.07;2.85;;;;;;;;;;4960798;28;20110;-70
2022/10/09 12:17:21;;;;;;;4.75;2.55;;;;;;;;;;4960117;28;20073;-70
2022/10/09 12:19:50;;;;;;;5.68;2.70;;;;;;;;;;4960370;28;20082;-68
2022/10/09 12:22:22;;;;;;;6.80;2.97;;;;;;;;;;4960428;28;20060;-68
2022/10/09 12:24:54;;;;;;;3.00;2.55;;;;;;;;;;4959647;28;20137;-68
2022/10/09 12:27:25;;;;;;;5.50;2.95;;;;;;;;;;4960047;28;20133;-68
2022/10/09 12:29:54;;;;;;;4.22;2.72;;;;;;;;;;4960677;28;20057;-67
2022/10/09 12:32:32;;;;;;;6.15;2.45;;;;;;;;;;4960611;28;20629;-69
2022/10/09 12:34:59;;;;;;;5.68;2.60;;;;;;;;;;4959376;28;20544;-70
2022/10/09 12:37:34;;;;;;;4.05;2.70;;;;;;;;;;4959266;28;20145;-70
2022/10/09 12:40:20;;;;;;;3.30;2.30;;;;;;;;;;4958801;28;20059;-68
2022/10/09 12:42:46;;;;;;;4.82;2.40;;;;;;;;;;4958958;28;20045;-69
2022/10/09 12:45:18;;;;;;;3.55;2.40;;;;;;;;;;4961900;28;20047;-70
2022/10/09 12:47:43;;;;;;;;;;;;;;;;;;4961673;28;20469;-70
2022/10/09 12:50:15;;;;;;;5.20;2.63;;;;;;;;;;4962340;28;20446;-68
2022/10/09 12:52:50;;;;;;;6.95;2.58;;;;;;;;;;4957729;28;20050;-70
2022/10/09 12:55:26;;;;;;;5.35;2.45;;;;;;;;;;4958381;28;20566;-70
2022/10/09 12:57:53;;;;;;;5.93;2.65;;;;;;;;;;4934536;28;20054;-70
2022/10/09 13:00:18;;;;;;;6.45;2.70;;;;;;;;;;4958703;28;20047;-71
2022/10/09 13:02:44;;;;;;;8.35;3.13;;;;;;;;;;4958989;28;20049;-70
2022/10/09 13:05:09;;;;;;;4.38;2.80;;;;;;;;;;4959391;28;20180;-70
2022/10/09 13:07:35;;;;;;;5.45;3.00;;;;;;;;;;4959759;28;20043;-71
2022/10/09 13:10:14;;;;;;;3.83;2.85;;;;;;;;;;4959943;28;20154;-71
2022/10/09 13:12:40;;;;;;;3.83;2.28;;;;;;;;;;4959627;28;20051;-72
2022/10/09 13:15:26;;;;;;;5.95;2.90;;;;;;;;;;4959441;28;20051;-72
2022/10/09 13:17:51;;;;;;;3.70;2.17;;;;;;;;;;4960209;28;20046;-71
2022/10/09 13:20:27;;;;;;;8.40;2.30;;;;;;;;;;4958823;28;20754;-72
2022/10/09 13:23:01;;;;;;;5.82;2.72;;;;;;;;;;4958572;28;20051;-70
2022/10/09 13:25:32;;;;;;;7.78;2.95;;;;;;;;;;4957822;28;20047;-71
2022/10/09 13:27:58;;;;;;;4.50;2.80;;;;;;;;;;4958583;28;20594;-70
2022/10/09 13:30:24;;;;;;;5.63;2.80;;;;;;;;;;4957905;28;20043;-69
2022/10/09 13:32:49;;;;;;;6.72;2.90;;;;;;;;;;4960008;28;20486;-69
2022/10/09 13:35:15;;;;;;;9.25;3.30;;;;;;;;;;4960313;28;20066;-68
2022/10/09 13:41:28;;;;;;;6.72;3.17;;;;;;;;;;4941701;28;21053;-70
2022/10/09 13:43:54;;;;;;;4.80;2.88;;;;;;;;;;4927233;28;20066;-71
2022/10/09 13:46:19;;;;;;;5.50;2.92;;;;;;;;;;4958085;28;20062;-72
2022/10/09 13:48:45;;;;;;;7.50;3.47;;;;;;;;;;4959159;28;20043;-74
2022/10/09 13:51:11;;;;;;;13.65;3.97;;;;;;;;;;4960232;28;20035;-72
2022/10/09 13:53:36;;;;;;;7.05;4.82;;;;;;;;;;4960622;28;20295;-73
2022/10/09 13:56:02;;;;;;;7.10;3.80;;;;;;;;;;4959119;28;20078;-69
2022/10/09 13:58:28;;;;;;;5.22;3.10;;;;;;;;;;4941979;28;20055;-70
2022/10/09 14:00:53;;;;;;;8.38;3.00;;;;;;;;;;4959254;28;20121;-70
2022/10/09 14:03:20;;;;;;;10.77;3.60;;;;;;;;;;4960072;28;20050;-71
2022/10/09 14:05:45;;;;;;;4.28;2.92;;;;;;;;;;4960247;28;20046;-69
2022/10/09 14:08:11;;;;;;;7.10;3.20;;;;;;;;;;4958464;28;21121;-73
2022/10/09 14:10:41;;;;;;;5.55;3.22;;;;;;;;;;4959803;28;20397;-70
2022/10/09 14:13:08;;;;;;;6.75;3.28;;;;;;;;;;4960452;28;20071;-73
2022/10/09 14:15:37;;;;;;;4.13;3.03;;;;;;;;;;4959810;28;20047;-70
2022/10/09 14:18:03;;;;;;;17.20;3.50;;;;;;;;;;4959555;28;20407;-70
2022/10/09 14:20:28;;;;;;;5.25;3.33;;;;;;;;;;4959336;28;20042;-71
2022/10/09 14:22:54;;;;;;;6.35;3.10;;;;;;;;;;4958786;28;20547;-70
2022/10/09 14:25:19;;;;;;;6.45;3.35;;;;;;;;;;4959546;28;20050;-69
2022/10/09 14:27:44;;;;;;;6.32;3.30;;;;;;;;;;4959846;28;20543;-70
2022/10/09 14:30:10;;;;;;;6.57;3.28;;;;;;;;;;4959038;28;20046;-72
2022/10/09 14:32:36;;;;;;;10.70;3.97;;;;;;;;;;4958838;28;20058;-70
2022/10/09 14:35:01;;;;;;;4.72;2.88;;;;;;;;;;4959413;28;20051;-70
2022/10/09 14:37:27;;;;;;;11.27;3.10;;;;;;;;;;4958289;28;20779;-72
2022/10/09 14:39:52;;;;;;;5.50;4.00;;;;;;;;;;4960391;28;20436;-70
2022/10/09 14:42:18;;;;;;;10.00;2.80;;;;;;;;;;4958534;28;20047;-72
2022/10/09 14:44:43;;;;;;;7.10;3.42;;;;;;;;;;4959956;28;20093;-73
2022/10/09 14:47:09;;;;;;;5.75;3.42;;;;;;;;;;4959618;28;20038;-70
2022/10/09 14:49:34;;;;;;;8.52;4.05;;;;;;;;;;4959081;28;20057;-70
2022/10/09 14:51:59;;;;;;;8.25;3.33;;;;;;;;;;4958138;28;20059;-69
2022/10/09 14:54:26;;;;;;;5.95;3.30;;;;;;;;;;4959735;28;20050;-70
2022/10/09 14:56:51;;;;;;;9.65;3.50;;;;;;;;;;4960176;28;20050;-70